createdAt,value
2022-12-01T06:56:24.491Z,100563.16
2022-12-01T07:01:51.844Z,100598.56
2022-12-01T07:04:24.693Z,100604.59
2022-12-01T07:07:09.533Z,100614.94
2022-12-01T07:09:41.508Z,100614.06
2022-12-01T07:12:12.018Z,100613.19
2022-12-01T07:14:45.286Z,100620.97
2022-12-01T07:17:16.446Z,100614.88
2022-12-01T07:20:00.492Z,100623.50
2022-12-01T07:22:37.462Z,100616.56
2022-12-01T07:25:10.487Z,100613.09
2022-12-01T07:27:45.932Z,100623.44
2022-12-01T07:30:33.250Z,100622.56
2022-12-01T07:33:06.204Z,100627.72
2022-12-01T07:35:39.899Z,100630.25
2022-12-01T07:38:12.141Z,100625.03
2022-12-01T07:40:48.835Z,100619.84
2022-12-01T07:43:39.409Z,100623.28
2022-12-01T07:46:23.062Z,100602.50
2022-12-01T07:49:03.890Z,100618.97
2022-12-01T07:51:42.282Z,100599.09
2022-12-01T07:54:21.596Z,100612.00
2022-12-01T07:56:54.578Z,100617.06
2022-12-01T08:00:17.663Z,100623.06
2022-12-01T08:02:22.115Z,100617.75
2022-12-01T08:05:47.741Z,100620.25
2022-12-01T08:23:28.858Z,100594.81
2022-12-01T08:25:57.712Z,100620.59
2022-12-01T08:28:42.364Z,100611.91
2022-12-01T08:34:42.332Z,100620.22
2022-12-01T08:40:16.538Z,100623.28
2022-12-01T08:42:57.558Z,100632.63
2022-12-01T08:45:31.218Z,100633.25
2022-12-01T08:48:02.490Z,100628.69
2022-12-01T08:50:33.659Z,100629.34
2022-12-01T08:53:12.511Z,100623.13
2022-12-01T08:55:42.177Z,100630.56
2022-12-01T08:58:20.143Z,100628.59
2022-12-01T09:00:48.277Z,100631.88
2022-12-01T09:03:24.799Z,100629.09
2022-12-01T09:06:26.205Z,100626.44
2022-12-01T09:08:45.796Z,100626.31
2022-12-01T09:11:15.645Z,100620.94
2022-12-01T09:13:52.974Z,100622.47
2022-12-01T09:16:37.893Z,100615.28
2022-12-01T09:19:23.687Z,100590.94
2022-12-01T09:21:55.589Z,100614.59
2022-12-01T09:24:29.954Z,100613.53
2022-12-01T09:27:03.599Z,100602.06
2022-12-01T09:29:51.048Z,100611.41
2022-12-01T09:36:08.494Z,100556.06
2022-12-01T09:38:42.833Z,100582.50
2022-12-01T09:41:26.872Z,100576.25
2022-12-01T09:44:20.370Z,100590.00
2022-12-01T09:47:00.722Z,100600.16
2022-12-01T09:49:45.765Z,100581.09
2022-12-01T09:52:33.040Z,100585.25
2022-12-01T09:55:02.544Z,100595.53
2022-12-01T09:57:35.441Z,100593.19
2022-12-01T10:00:09.470Z,100589.09
2022-12-01T10:02:41.263Z,100588.09
2022-12-01T10:05:16.348Z,100580.97
2022-12-01T10:07:50.274Z,100584.47
2022-12-01T10:10:24.499Z,100579.44
2022-12-01T10:12:52.606Z,100571.59
2022-12-01T10:15:32.223Z,100573.06
2022-12-01T10:18:14.684Z,100572.16
2022-12-01T10:20:50.948Z,100568.69
2022-12-01T10:23:52.837Z,100573.56
2022-12-01T10:26:28.488Z,100574.47
2022-12-01T10:29:16.992Z,100570.53
2022-12-01T10:31:55.136Z,100558.22
2022-12-01T10:34:25.317Z,100557.91
2022-12-01T10:36:53.392Z,100553.22
2022-12-01T10:39:28.601Z,100555.56
2022-12-01T10:42:03.203Z,100552.09
2022-12-01T10:44:31.935Z,100554.44
2022-12-01T10:47:01.078Z,100554.13
2022-12-01T10:49:39.688Z,100554.41
2022-12-01T10:52:08.344Z,100550.34
2022-12-01T10:54:40.854Z,100550.00
2022-12-01T10:57:17.615Z,100556.53
2022-12-01T10:59:57.961Z,100554.97
2022-12-01T11:02:32.306Z,100548.34
2022-12-01T11:05:10.483Z,100546.75
2022-12-01T11:07:50.578Z,100547.72
2022-12-01T11:10:22.092Z,100540.47
2022-12-01T11:13:21.049Z,100537.91
2022-12-01T11:19:50.013Z,100529.22
2022-12-01T11:22:26.819Z,100522.22
2022-12-01T11:25:10.175Z,100512.41
2022-12-01T11:27:50.505Z,100519.06
2022-12-01T11:30:29.224Z,100503.44
2022-12-01T11:33:00.759Z,100509.13
2022-12-01T11:35:31.165Z,100519.97
2022-12-01T11:40:55.151Z,100512.81
2022-12-01T11:43:32.513Z,100507.34
2022-12-01T11:46:10.710Z,100509.13
2022-12-01T11:48:39.239Z,100518.81
2022-12-01T11:51:12.256Z,100516.31
2022-12-01T11:53:42.346Z,100506.06
2022-12-01T11:56:36.985Z,100499.75
2022-12-01T11:59:23.758Z,100507.75
2022-12-01T12:02:13.045Z,100502.56
2022-12-01T12:05:30.827Z,100478.03
2022-12-01T12:08:21.363Z,100502.72
2022-12-01T12:10:56.688Z,100493.19
2022-12-01T12:14:05.161Z,100507.84
2022-12-01T12:16:48.684Z,100507.06
2022-12-01T12:20:09.797Z,100499.84
2022-12-01T12:22:55.745Z,100489.81
2022-12-01T12:25:48.274Z,100497.84
2022-12-01T12:28:34.088Z,100483.78
2022-12-01T12:34:29.256Z,100505.22
2022-12-01T12:37:12.691Z,100492.84
2022-12-01T12:40:00.645Z,100504.91
2022-12-01T12:42:52.861Z,100499.81
2022-12-01T12:45:37.163Z,100494.47
2022-12-01T12:48:25.663Z,100489.59
2022-12-01T12:51:03.625Z,100495.66
2022-12-01T12:57:08.621Z,100494.81
2022-12-01T12:59:49.148Z,100488.88
2022-12-01T13:02:27.059Z,100497.66
2022-12-01T13:05:02.907Z,100488.09
2022-12-01T13:07:38.722Z,100489.66
2022-12-01T13:10:22.946Z,100477.53
2022-12-01T13:12:57.797Z,100475.78
2022-12-01T13:15:27.452Z,100475.78
2022-12-01T13:18:02.763Z,100484.84
2022-12-01T13:20:32.288Z,100485.78
2022-12-01T13:23:02.534Z,100485.84
2022-12-01T13:25:36.377Z,100491.88
2022-12-01T13:28:07.306Z,100483.22
2022-12-01T13:30:39.868Z,100483.22
2022-12-01T13:33:08.529Z,100488.53
2022-12-01T13:35:38.909Z,100489.41
2022-12-01T13:38:22.919Z,100496.38
2022-12-01T13:41:12.707Z,100494.75
2022-12-01T13:43:53.405Z,100492.13
2022-12-01T13:46:27.847Z,100493.97
2022-12-01T13:48:58.073Z,100493.97
2022-12-01T13:51:26.885Z,100495.75
2022-12-01T13:54:28.744Z,100478.41
2022-12-01T13:57:08.170Z,100485.41
2022-12-01T13:59:41.455Z,100487.16
2022-12-01T14:02:19.372Z,100480.50
2022-12-01T14:04:47.961Z,100468.50
2022-12-01T14:07:27.266Z,100478.16
2022-12-01T14:10:15.697Z,100482.66
2022-12-01T14:15:42.812Z,100483.81
2022-12-01T14:18:48.762Z,100476.22
2022-12-01T14:21:18.849Z,100480.53
2022-12-01T14:24:07.771Z,100484.84
2022-12-01T14:27:16.672Z,100480.72
2022-12-01T14:29:52.592Z,100472.78
2022-12-01T14:32:29.507Z,100458.38
2022-12-01T14:35:07.362Z,100481.59
2022-12-01T14:37:51.753Z,100488.72
2022-12-01T14:40:31.368Z,100463.16
2022-12-01T14:43:18.596Z,100479.63
2022-12-01T14:46:07.797Z,100476.41
2022-12-01T14:48:46.057Z,100481.75
2022-12-01T14:51:27.081Z,100478.53
2022-12-01T14:53:59.689Z,100483.91
2022-12-01T14:56:30.637Z,100486.72
2022-12-01T14:59:15.073Z,100486.88
2022-12-01T15:02:39.654Z,100460.38
2022-12-01T15:05:35.127Z,100489.00
2022-12-01T15:08:40.125Z,100487.22
2022-12-01T15:11:21.621Z,100489.91
2022-12-01T15:14:11.963Z,100478.78
2022-12-01T15:16:43.583Z,100489.16
2022-12-01T15:19:35.352Z,100485.81
2022-12-01T15:22:13.674Z,100492.81
2022-12-01T15:24:42.132Z,100489.38
2022-12-01T15:27:39.814Z,100483.25
2022-12-01T15:30:21.153Z,100495.25
2022-12-01T15:33:04.661Z,100492.63
2022-12-01T15:35:34.956Z,100475.41
2022-12-01T15:38:17.818Z,100475.34
2022-12-01T15:44:02.790Z,100458.16
2022-12-01T15:46:39.443Z,100489.00
2022-12-01T15:49:23.883Z,100461.75
2022-12-01T15:55:31.044Z,100487.72
2022-12-01T15:58:22.476Z,100479.41
2022-12-01T16:01:44.643Z,100454.75
2022-12-01T16:04:41.326Z,100479.75
2022-12-01T16:08:13.383Z,100485.09
2022-12-01T16:10:46.469Z,100491.13
2022-12-01T16:13:48.288Z,100500.75
2022-12-01T16:16:41.983Z,100502.63
2022-12-01T16:24:01.057Z,100473.41
2022-12-01T16:26:39.051Z,100461.50
2022-12-01T16:32:45.865Z,100502.53
2022-12-01T16:35:31.812Z,100481.78
2022-12-01T16:41:41.207Z,100499.09
2022-12-01T16:44:28.847Z,100498.38
2022-12-01T16:47:21.942Z,100504.47
2022-12-01T16:50:04.337Z,100492.38
2022-12-01T16:52:44.501Z,100492.47
2022-12-01T16:55:39.001Z,100502.97
2022-12-01T16:58:11.107Z,100500.41
2022-12-01T17:00:48.203Z,100497.03
2022-12-01T17:03:22.706Z,100501.44
2022-12-01T17:06:07.140Z,100504.91
2022-12-01T17:08:37.435Z,100507.56
2022-12-01T17:11:09.274Z,100502.47
2022-12-01T17:13:40.885Z,100512.97
2022-12-01T17:16:16.729Z,100502.63
2022-12-01T17:18:52.700Z,100512.28
2022-12-01T17:21:23.651Z,100509.72
2022-12-01T17:23:52.066Z,100508.88
2022-12-01T17:26:30.827Z,100508.09
2022-12-01T17:29:00.341Z,100514.16
2022-12-01T17:31:29.204Z,100515.94
2022-12-01T17:33:57.341Z,100509.91
2022-12-01T17:36:25.387Z,100509.94
2022-12-01T17:38:57.648Z,100509.28
2022-12-01T17:41:32.456Z,100512.88
2022-12-01T17:44:03.935Z,100520.78
2022-12-01T17:46:32.897Z,100514.88
2022-12-01T17:49:00.957Z,100526.13
2022-12-01T17:51:29.216Z,100522.78
2022-12-01T17:53:57.604Z,100520.25
2022-12-01T17:56:26.615Z,100513.31
2022-12-01T17:58:54.849Z,100516.00
2022-12-01T18:01:29.898Z,100519.53
2022-12-01T18:03:59.577Z,100520.50
2022-12-01T18:06:28.219Z,100527.53
2022-12-01T18:08:57.614Z,100525.94
2022-12-01T18:11:25.765Z,100523.31
2022-12-01T18:13:55.148Z,100524.28
2022-12-01T18:16:26.749Z,100526.16
2022-12-01T18:18:55.650Z,100524.56
2022-12-01T18:21:25.152Z,100530.75
2022-12-01T18:23:55.314Z,100528.25
2022-12-01T18:26:24.828Z,100523.09
2022-12-01T18:28:57.315Z,100527.59
2022-12-01T18:31:27.149Z,100522.44
2022-12-01T18:33:57.860Z,100527.66
2022-12-01T18:36:27.638Z,100528.63
2022-12-01T18:38:55.946Z,100530.41
2022-12-01T18:41:24.480Z,100526.94
2022-12-01T18:43:53.141Z,100531.28
2022-12-01T18:46:23.478Z,100527.00
2022-12-01T18:48:59.957Z,100525.38
2022-12-01T18:51:38.361Z,100533.19
2022-12-01T18:54:08.656Z,100528.91
2022-12-01T18:56:37.652Z,100537.63
2022-12-01T18:59:09.001Z,100535.97
2022-12-01T19:01:41.106Z,100536.00
2022-12-01T19:04:12.239Z,100535.09
2022-12-01T19:06:46.462Z,100532.50
2022-12-01T19:09:17.289Z,100536.84
2022-12-01T19:11:46.670Z,100531.66
2022-12-01T19:14:17.948Z,100536.84
2022-12-01T19:16:47.436Z,100538.63
2022-12-01T19:19:17.498Z,100549.03
2022-12-01T19:21:46.040Z,100535.16
2022-12-01T19:24:14.966Z,100539.44
2022-12-01T19:26:43.815Z,100541.16
2022-12-01T19:29:15.566Z,100530.78
2022-12-01T19:32:56.361Z,100523.06
2022-12-01T19:35:45.213Z,100523.00
2022-12-01T19:38:17.221Z,100541.94
2022-12-01T19:41:01.722Z,100523.91
2022-12-01T19:43:33.749Z,100539.41
2022-12-01T19:46:25.912Z,100497.22
2022-12-01T19:49:19.552Z,100509.28
2022-12-01T19:54:51.418Z,100544.59
2022-12-01T19:57:35.800Z,100518.81
2022-12-01T20:00:18.904Z,100547.28
2022-12-01T20:02:55.491Z,100543.84
2022-12-01T20:05:24.057Z,100547.41
2022-12-01T20:07:54.801Z,100551.78
2022-12-01T20:10:28.824Z,100541.41
2022-12-01T20:12:59.431Z,100552.69
2022-12-01T20:15:29.980Z,100547.59
2022-12-01T20:18:06.264Z,100552.78
2022-12-01T20:20:44.208Z,100551.09
2022-12-01T20:23:27.692Z,100551.09
2022-12-01T20:26:06.640Z,100531.31
2022-12-01T20:28:54.509Z,100543.41
2022-12-01T20:31:30.763Z,100545.16
2022-12-01T20:34:04.321Z,100555.56
2022-12-01T20:36:36.211Z,100546.09
2022-12-01T20:39:47.160Z,100550.44
2022-12-01T20:42:19.917Z,100559.97
2022-12-01T20:44:50.494Z,100563.47
2022-12-01T20:47:29.202Z,100560.91
2022-12-01T20:50:08.508Z,100545.47
2022-12-01T20:52:41.359Z,100565.28
2022-12-01T20:55:11.978Z,100566.16
2022-12-01T20:57:52.016Z,100562.69
2022-12-01T21:00:26.343Z,100573.13
2022-12-01T21:02:58.030Z,100570.56
2022-12-01T21:05:33.331Z,100575.72
2022-12-01T21:08:52.163Z,100581.81
2022-12-01T21:11:19.189Z,100556.78
2022-12-01T21:14:06.498Z,100567.16
2022-12-01T21:16:36.819Z,100590.50
2022-12-01T21:19:16.196Z,100591.38
2022-12-01T21:21:44.355Z,100588.72
2022-12-01T21:24:17.171Z,100586.19
2022-12-01T21:26:56.459Z,100581.00
2022-12-01T21:29:28.409Z,100581.91
2022-12-01T21:32:01.349Z,100579.34
2022-12-01T21:34:30.338Z,100583.72
2022-12-01T21:37:01.802Z,100590.59
2022-12-01T21:39:31.474Z,100589.75
2022-12-01T21:42:13.605Z,100594.13
2022-12-01T21:44:41.561Z,100590.66
2022-12-01T21:47:23.119Z,100588.94
2022-12-01T21:49:53.734Z,100594.13
2022-12-01T21:52:25.132Z,100589.84
2022-12-01T21:54:53.466Z,100593.28
2022-12-01T21:57:42.862Z,100596.72
2022-12-01T22:00:35.602Z,100602.78
2022-12-01T22:03:25.453Z,100597.59
2022-12-01T22:06:27.699Z,100595.84
2022-12-01T22:08:49.991Z,100595.84
2022-12-01T22:11:20.892Z,100593.28
2022-12-01T22:13:56.178Z,100592.41
2022-12-01T22:16:31.044Z,100594.16
2022-12-01T22:19:00.804Z,100594.13
2022-12-01T22:21:41.400Z,100592.38
2022-12-01T22:24:40.499Z,100588.00
2022-12-01T22:27:22.186Z,100584.53
2022-12-01T22:29:54.104Z,100583.66
2022-12-01T22:32:37.429Z,100581.06
2022-12-01T22:35:35.386Z,100576.66
2022-12-01T22:38:25.377Z,100557.72
2022-12-01T22:40:57.923Z,100574.91
2022-12-01T22:43:40.210Z,100578.34
2022-12-01T22:46:32.753Z,100576.56
2022-12-01T22:49:18.368Z,100575.66
2022-12-01T22:52:10.512Z,100562.69
2022-12-01T22:54:51.421Z,100560.03
2022-12-01T22:57:37.321Z,100569.50
2022-12-01T23:03:23.368Z,100534.06
2022-12-01T23:06:10.811Z,100559.84
2022-12-01T23:08:44.753Z,100563.28
2022-12-01T23:11:58.148Z,100557.28
2022-12-01T23:14:38.774Z,100559.00
2022-12-01T23:17:13.499Z,100557.28
2022-12-01T23:19:42.870Z,100571.94
2022-12-01T23:22:12.205Z,100567.59
2022-12-01T23:24:40.481Z,100565.81
2022-12-01T23:28:00.780Z,100564.09
2022-12-01T23:30:11.488Z,100518.44
2022-12-01T23:32:41.819Z,100565.88
2022-12-01T23:35:32.333Z,100567.56
2022-12-01T23:38:16.023Z,100572.75
2022-12-01T23:40:46.394Z,100575.31
2022-12-01T23:43:19.796Z,100579.59
2022-12-01T23:45:58.692Z,100576.06
2022-12-01T23:48:36.431Z,100560.53
2022-12-01T23:54:33.203Z,100563.91
2022-12-01T23:57:18.224Z,100559.50
